sensor_id;sensor_type;location;lat;lon;timestamp;pressure;altitude;pressure_sealevel;temperature;humidity
71666;BME280;59503;53.486;10.196;2023-05-20T00:00:03;102773.25;;;9.94;66.22
71666;BME280;59503;53.486;10.196;2023-05-20T00:02:29;102770.75;;;9.84;66.39
71666;BME280;59503;53.486;10.196;2023-05-20T00:04:54;102766.72;;;9.81;66.35
71666;BME280;59503;53.486;10.196;2023-05-20T00:07:20;102756.59;;;9.73;66.57
71666;BME280;59503;53.486;10.196;2023-05-20T00:09:45;102763.34;;;9.76;66.56
71666;BME280;59503;53.486;10.196;2023-05-20T00:12:10;102770.06;;;9.78;67.00
71666;BME280;59503;53.486;10.196;2023-05-20T00:14:36;102768.78;;;9.76;66.55
71666;BME280;59503;53.486;10.196;2023-05-20T00:17:01;102775.81;;;9.77;66.62
71666;BME280;59503;53.486;10.196;2023-05-20T00:19:27;102762.00;;;9.87;66.60
71666;BME280;59503;53.486;10.196;2023-05-20T00:21:52;102764.31;;;9.80;66.90
71666;BME280;59503;53.486;10.196;2023-05-20T00:24:17;102771.97;;;9.78;66.87
71666;BME280;59503;53.486;10.196;2023-05-20T00:26:43;102769.38;;;9.73;67.84
71666;BME280;59503;53.486;10.196;2023-05-20T00:29:08;102768.28;;;9.74;67.10
71666;BME280;59503;53.486;10.196;2023-05-20T00:31:34;102771.00;;;9.74;67.53
71666;BME280;59503;53.486;10.196;2023-05-20T00:33:59;102780.44;;;9.76;67.33
71666;BME280;59503;53.486;10.196;2023-05-20T00:36:25;102778.91;;;9.84;66.87
71666;BME280;59503;53.486;10.196;2023-05-20T00:38:51;102781.25;;;9.77;67.46
71666;BME280;59503;53.486;10.196;2023-05-20T00:41:16;102776.44;;;9.74;68.05
71666;BME280;59503;53.486;10.196;2023-05-20T00:43:42;102780.84;;;9.70;68.26
71666;BME280;59503;53.486;10.196;2023-05-20T00:46:07;102775.03;;;9.63;68.90
71666;BME280;59503;53.486;10.196;2023-05-20T00:48:39;102777.66;;;9.54;68.88
71666;BME280;59503;53.486;10.196;2023-05-20T00:51:05;102774.94;;;9.54;68.66
71666;BME280;59503;53.486;10.196;2023-05-20T00:53:33;102780.25;;;9.59;69.03
71666;BME280;59503;53.486;10.196;2023-05-20T00:55:58;102779.06;;;9.65;68.61
71666;BME280;59503;53.486;10.196;2023-05-20T00:58:24;102770.63;;;9.53;69.50
71666;BME280;59503;53.486;10.196;2023-05-20T01:00:50;102769.81;;;9.53;69.25
71666;BME280;59503;53.486;10.196;2023-05-20T01:03:16;102775.97;;;9.58;69.13
71666;BME280;59503;53.486;10.196;2023-05-20T01:05:42;102758.38;;;9.56;69.50
71666;BME280;59503;53.486;10.196;2023-05-20T01:08:07;102767.94;;;9.53;69.36
71666;BME280;59503;53.486;10.196;2023-05-20T01:10:33;102770.22;;;9.60;69.39
71666;BME280;59503;53.486;10.196;2023-05-20T01:13:04;102770.84;;;9.57;69.81
71666;BME280;59503;53.486;10.196;2023-05-20T01:15:32;102753.97;;;9.46;70.46
71666;BME280;59503;53.486;10.196;2023-05-20T01:18:00;102756.38;;;9.48;69.99
71666;BME280;59503;53.486;10.196;2023-05-20T01:20:30;102755.69;;;9.42;70.22
71666;BME280;59503;53.486;10.196;2023-05-20T01:22:57;102768.16;;;9.43;70.17
71666;BME280;59503;53.486;10.196;2023-05-20T01:25:23;102760.63;;;9.40;70.51
71666;BME280;59503;53.486;10.196;2023-05-20T01:27:53;102765.34;;;9.35;71.03
71666;BME280;59503;53.486;10.196;2023-05-20T01:30:20;102767.03;;;9.31;71.13
71666;BME280;59503;53.486;10.196;2023-05-20T01:32:51;102768.06;;;9.21;71.93
71666;BME280;59503;53.486;10.196;2023-05-20T01:35:19;102775.91;;;9.23;71.86
71666;BME280;59503;53.486;10.196;2023-05-20T01:37:46;102765.78;;;9.15;73.47
71666;BME280;59503;53.486;10.196;2023-05-20T01:40:14;102772.78;;;9.16;72.37
71666;BME280;59503;53.486;10.196;2023-05-20T01:42:41;102769.00;;;9.17;72.25
71666;BME280;59503;53.486;10.196;2023-05-20T01:45:07;102769.81;;;9.17;72.33
71666;BME280;59503;53.486;10.196;2023-05-20T01:47:33;102762.84;;;9.25;72.22
71666;BME280;59503;53.486;10.196;2023-05-20T01:49:58;102767.25;;;9.21;72.65
71666;BME280;59503;53.486;10.196;2023-05-20T01:52:24;102762.03;;;9.11;73.71
71666;BME280;59503;53.486;10.196;2023-05-20T01:54:49;102761.88;;;9.07;73.84
71666;BME280;59503;53.486;10.196;2023-05-20T01:57:19;102760.66;;;9.13;73.94
71666;BME280;59503;53.486;10.196;2023-05-20T01:59:45;102765.66;;;9.06;73.67
71666;BME280;59503;53.486;10.196;2023-05-20T02:02:10;102764.69;;;9.02;74.04
71666;BME280;59503;53.486;10.196;2023-05-20T02:04:36;102765.88;;;9.10;74.55
71666;BME280;59503;53.486;10.196;2023-05-20T02:07:01;102769.28;;;9.02;74.35
71666;BME280;59503;53.486;10.196;2023-05-20T02:09:27;102760.84;;;9.03;74.36
71666;BME280;59503;53.486;10.196;2023-05-20T02:11:52;102770.69;;;9.13;74.28
71666;BME280;59503;53.486;10.196;2023-05-20T02:14:18;102769.69;;;9.22;73.29
71666;BME280;59503;53.486;10.196;2023-05-20T02:16:45;102759.06;;;9.12;74.24
71666;BME280;59503;53.486;10.196;2023-05-20T02:19:10;102756.72;;;9.06;74.70
71666;BME280;59503;53.486;10.196;2023-05-20T02:21:38;102760.66;;;9.00;75.01
71666;BME280;59503;53.486;10.196;2023-05-20T02:24:05;102764.47;;;8.99;75.55
71666;BME280;59503;53.486;10.196;2023-05-20T02:26:30;102753.00;;;8.88;75.70
71666;BME280;59503;53.486;10.196;2023-05-20T02:28:56;102747.38;;;8.85;76.26
71666;BME280;59503;53.486;10.196;2023-05-20T02:31:21;102751.50;;;8.82;76.46
71666;BME280;59503;53.486;10.196;2023-05-20T02:33:47;102748.59;;;8.78;76.65
71666;BME280;59503;53.486;10.196;2023-05-20T02:36:12;102742.56;;;8.82;76.99
71666;BME280;59503;53.486;10.196;2023-05-20T02:38:37;102737.16;;;8.82;76.50
71666;BME280;59503;53.486;10.196;2023-05-20T02:41:03;102742.16;;;9.02;76.21
71666;BME280;59503;53.486;10.196;2023-05-20T02:43:29;102739.84;;;9.22;74.96
71666;BME280;59503;53.486;10.196;2023-05-20T02:45:56;102749.38;;;9.20;75.18
71666;BME280;59503;53.486;10.196;2023-05-20T02:48:21;102752.59;;;9.08;76.05
71666;BME280;59503;53.486;10.196;2023-05-20T02:50:46;102735.94;;;8.88;77.15
71666;BME280;59503;53.486;10.196;2023-05-20T02:53:12;102743.06;;;8.97;77.36
71666;BME280;59503;53.486;10.196;2023-05-20T02:55:39;102736.75;;;8.88;78.16
71666;BME280;59503;53.486;10.196;2023-05-20T02:58:05;102738.84;;;8.91;78.81
71666;BME280;59503;53.486;10.196;2023-05-20T03:00:30;102741.16;;;8.84;79.33
71666;BME280;59503;53.486;10.196;2023-05-20T03:02:56;102748.69;;;8.73;80.43
71666;BME280;59503;53.486;10.196;2023-05-20T03:05:23;102760.22;;;8.65;80.91
71666;BME280;59503;53.486;10.196;2023-05-20T03:07:48;102748.41;;;8.75;81.43
71666;BME280;59503;53.486;10.196;2023-05-20T03:10:14;102742.06;;;8.79;81.13
71666;BME280;59503;53.486;10.196;2023-05-20T03:12:40;102751.50;;;8.68;82.62
71666;BME280;59503;53.486;10.196;2023-05-20T03:15:06;102747.34;;;8.57;83.65
71666;BME280;59503;53.486;10.196;2023-05-20T03:17:31;102758.00;;;8.67;84.45
71666;BME280;59503;53.486;10.196;2023-05-20T03:19:57;102755.63;;;8.79;84.55
71666;BME280;59503;53.486;10.196;2023-05-20T03:22:22;102752.59;;;8.67;85.60
71666;BME280;59503;53.486;10.196;2023-05-20T03:24:48;102759.31;;;8.56;86.20
71666;BME280;59503;53.486;10.196;2023-05-20T03:27:13;102758.00;;;8.54;87.84
71666;BME280;59503;53.486;10.196;2023-05-20T03:29:39;102750.25;;;8.47;87.92
71666;BME280;59503;53.486;10.196;2023-05-20T03:32:04;102748.78;;;8.55;89.25
71666;BME280;59503;53.486;10.196;2023-05-20T03:34:30;102757.47;;;8.52;89.51
71666;BME280;59503;53.486;10.196;2023-05-20T03:36:56;102756.00;;;8.59;90.24
71666;BME280;59503;53.486;10.196;2023-05-20T03:39:21;102740.34;;;8.56;90.63
71666;BME280;59503;53.486;10.196;2023-05-20T03:41:47;102745.38;;;8.63;91.22
71666;BME280;59503;53.486;10.196;2023-05-20T03:44:12;102752.69;;;8.62;91.50
71666;BME280;59503;53.486;10.196;2023-05-20T03:46:37;102754.88;;;8.60;91.91
71666;BME280;59503;53.486;10.196;2023-05-20T03:49:03;102747.06;;;8.59;92.41
71666;BME280;59503;53.486;10.196;2023-05-20T03:51:29;102741.94;;;8.57;92.58
71666;BME280;59503;53.486;10.196;2023-05-20T03:53:55;102746.34;;;8.67;92.22
71666;BME280;59503;53.486;10.196;2023-05-20T03:56:20;102745.78;;;8.70;92.73
71666;BME280;59503;53.486;10.196;2023-05-20T03:58:46;102749.28;;;8.70;93.22
71666;BME280;59503;53.486;10.196;2023-05-20T04:01:12;102734.53;;;8.63;93.91
71666;BME280;59503;53.486;10.196;2023-05-20T04:03:39;102741.47;;;8.82;94.01
71666;BME280;59503;53.486;10.196;2023-05-20T04:06:06;102748.59;;;8.78;94.46
71666;BME280;59503;53.486;10.196;2023-05-20T04:08:32;102741.25;;;8.93;93.79
71666;BME280;59503;53.486;10.196;2023-05-20T04:10:58;102746.78;;;9.01;93.23
71666;BME280;59503;53.486;10.196;2023-05-20T04:13:26;102749.81;;;9.00;94.53
71666;BME280;59503;53.486;10.196;2023-05-20T04:15:51;102745.75;;;9.11;94.63
71666;BME280;59503;53.486;10.196;2023-05-20T04:18:17;102750.19;;;9.07;94.54
71666;BME280;59503;53.486;10.196;2023-05-20T04:20:44;102756.72;;;9.06;95.81
71666;BME280;59503;53.486;10.196;2023-05-20T04:23:10;102755.53;;;8.98;96.04
71666;BME280;59503;53.486;10.196;2023-05-20T04:25:36;102755.22;;;9.00;97.52
71666;BME280;59503;53.486;10.196;2023-05-20T04:28:01;102749.38;;;9.06;97.72
71666;BME280;59503;53.486;10.196;2023-05-20T04:30:27;102755.53;;;9.12;97.87
71666;BME280;59503;53.486;10.196;2023-05-20T04:32:53;102751.38;;;9.14;97.86
71666;BME280;59503;53.486;10.196;2023-05-20T04:35:18;102754.81;;;9.20;98.28
71666;BME280;59503;53.486;10.196;2023-05-20T04:37:44;102746.66;;;9.20;99.11
71666;BME280;59503;53.486;10.196;2023-05-20T04:40:12;102747.56;;;9.29;99.82
71666;BME280;59503;53.486;10.196;2023-05-20T04:42:38;102755.09;;;9.32;99.60
71666;BME280;59503;53.486;10.196;2023-05-20T04:45:04;102748.44;;;9.38;99.59
71666;BME280;59503;53.486;10.196;2023-05-20T04:47:30;102755.78;;;9.51;99.42
71666;BME280;59503;53.486;10.196;2023-05-20T04:49:56;102755.66;;;9.56;99.83
71666;BME280;59503;53.486;10.196;2023-05-20T04:52:25;102756.22;;;9.66;99.52
71666;BME280;59503;53.486;10.196;2023-05-20T04:54:51;102753.38;;;9.71;100.00
71666;BME280;59503;53.486;10.196;2023-05-20T04:57:17;102760.13;;;9.74;100.00
71666;BME280;59503;53.486;10.196;2023-05-20T04:59:46;102764.72;;;9.87;99.68
71666;BME280;59503;53.486;10.196;2023-05-20T05:02:12;102767.69;;;9.99;98.84
71666;BME280;59503;53.486;10.196;2023-05-20T05:04:38;102772.50;;;10.02;99.36
71666;BME280;59503;53.486;10.196;2023-05-20T05:07:03;102774.50;;;10.10;99.41
71666;BME280;59503;53.486;10.196;2023-05-20T05:09:29;102764.13;;;10.12;99.38
71666;BME280;59503;53.486;10.196;2023-05-20T05:11:55;102761.28;;;10.17;98.91
71666;BME280;59503;53.486;10.196;2023-05-20T05:14:20;102762.34;;;10.30;98.61
71666;BME280;59503;53.486;10.196;2023-05-20T05:16:47;102766.44;;;10.49;97.61
71666;BME280;59503;53.486;10.196;2023-05-20T05:19:13;102768.53;;;10.52;96.98
71666;BME280;59503;53.486;10.196;2023-05-20T05:21:38;102761.88;;;10.58;97.33
71666;BME280;59503;53.486;10.196;2023-05-20T05:24:04;102770.44;;;10.82;95.98
71666;BME280;59503;53.486;10.196;2023-05-20T05:26:29;102772.38;;;10.90;95.06
71666;BME280;59503;53.486;10.196;2023-05-20T05:28:55;102766.13;;;11.20;93.64
71666;BME280;59503;53.486;10.196;2023-05-20T05:31:20;102760.50;;;11.34;92.31
71666;BME280;59503;53.486;10.196;2023-05-20T05:33:46;102758.81;;;11.55;91.11
71666;BME280;59503;53.486;10.196;2023-05-20T05:36:11;102762.38;;;11.64;89.82
71666;BME280;59503;53.486;10.196;2023-05-20T05:38:37;102755.97;;;11.69;89.22
71666;BME280;59503;53.486;10.196;2023-05-20T05:41:02;102767.19;;;11.84;88.61
71666;BME280;59503;53.486;10.196;2023-05-20T05:43:27;102765.56;;;12.09;87.09
71666;BME280;59503;53.486;10.196;2023-05-20T05:45:53;102756.53;;;12.34;85.74
71666;BME280;59503;53.486;10.196;2023-05-20T05:48:18;102759.56;;;12.41;85.04
71666;BME280;59503;53.486;10.196;2023-05-20T05:50:44;102766.56;;;12.59;84.04
71666;BME280;59503;53.486;10.196;2023-05-20T05:53:10;102766.94;;;12.95;82.33
71666;BME280;59503;53.486;10.196;2023-05-20T05:55:36;102764.84;;;12.92;82.76
71666;BME280;59503;53.486;10.196;2023-05-20T05:58:01;102754.06;;;13.33;80.19
71666;BME280;59503;53.486;10.196;2023-05-20T06:00:26;102765.13;;;13.57;78.53
71666;BME280;59503;53.486;10.196;2023-05-20T06:02:52;102759.16;;;13.64;77.28
71666;BME280;59503;53.486;10.196;2023-05-20T06:05:17;102763.28;;;13.70;76.73
71666;BME280;59503;53.486;10.196;2023-05-20T06:07:43;102756.38;;;13.85;76.40
71666;BME280;59503;53.486;10.196;2023-05-20T06:10:08;102743.06;;;13.83;75.81
71666;BME280;59503;53.486;10.196;2023-05-20T06:12:34;102758.22;;;14.13;74.69
71666;BME280;59503;53.486;10.196;2023-05-20T06:15:00;102755.97;;;14.48;72.88
71666;BME280;59503;53.486;10.196;2023-05-20T06:17:25;102760.09;;;14.66;71.27
71666;BME280;59503;53.486;10.196;2023-05-20T06:19:50;102756.66;;;14.57;71.61
71666;BME280;59503;53.486;10.196;2023-05-20T06:22:16;102756.69;;;14.81;70.43
71666;BME280;59503;53.486;10.196;2023-05-20T06:24:41;102756.25;;;14.91;70.42
71666;BME280;59503;53.486;10.196;2023-05-20T06:27:07;102749.38;;;15.21;67.60
71666;BME280;59503;53.486;10.196;2023-05-20T06:29:32;102751.44;;;15.12;68.21
71666;BME280;59503;53.486;10.196;2023-05-20T06:31:58;102751.91;;;15.14;68.48
71666;BME280;59503;53.486;10.196;2023-05-20T06:34:23;102739.25;;;15.22;67.00
71666;BME280;59503;53.486;10.196;2023-05-20T06:36:49;102743.22;;;15.48;66.65
71666;BME280;59503;53.486;10.196;2023-05-20T06:39:15;102751.53;;;15.52;66.68
71666;BME280;59503;53.486;10.196;2023-05-20T06:41:40;102737.59;;;15.84;66.05
71666;BME280;59503;53.486;10.196;2023-05-20T06:44:06;102736.19;;;16.02;64.59
71666;BME280;59503;53.486;10.196;2023-05-20T06:46:32;102732.78;;;15.93;64.19
71666;BME280;59503;53.486;10.196;2023-05-20T06:48:58;102733.66;;;16.25;63.85
71666;BME280;59503;53.486;10.196;2023-05-20T06:51:24;102742.69;;;16.26;62.98
71666;BME280;59503;53.486;10.196;2023-05-20T06:53:49;102745.38;;;16.10;64.10
71666;BME280;59503;53.486;10.196;2023-05-20T06:56:14;102748.13;;;16.10;63.60
71666;BME280;59503;53.486;10.196;2023-05-20T06:58:40;102738.53;;;16.16;63.08
71666;BME280;59503;53.486;10.196;2023-05-20T07:01:06;102738.44;;;16.28;63.69
71666;BME280;59503;53.486;10.196;2023-05-20T07:03:31;102732.59;;;16.45;62.13
71666;BME280;59503;53.486;10.196;2023-05-20T07:05:57;102732.66;;;16.61;61.75
71666;BME280;59503;53.486;10.196;2023-05-20T07:08:23;102733.09;;;16.63;60.94
71666;BME280;59503;53.486;10.196;2023-05-20T07:10:48;102735.22;;;16.85;60.63
71666;BME280;59503;53.486;10.196;2023-05-20T07:13:14;102724.25;;;16.85;59.06
71666;BME280;59503;53.486;10.196;2023-05-20T07:15:39;102729.81;;;16.88;56.84
71666;BME280;59503;53.486;10.196;2023-05-20T07:18:05;102730.81;;;16.65;58.28
71666;BME280;59503;53.486;10.196;2023-05-20T07:20:30;102734.88;;;16.71;58.90
71666;BME280;59503;53.486;10.196;2023-05-20T07:22:56;102730.50;;;16.85;57.72
71666;BME280;59503;53.486;10.196;2023-05-20T07:25:21;102735.72;;;16.90;57.07
71666;BME280;59503;53.486;10.196;2023-05-20T07:27:47;102729.56;;;16.78;57.26
71666;BME280;59503;53.486;10.196;2023-05-20T07:30:12;102723.94;;;16.28;59.19
71666;BME280;59503;53.486;10.196;2023-05-20T07:32:37;102722.56;;;16.49;59.24
71666;BME280;59503;53.486;10.196;2023-05-20T07:35:03;102726.88;;;16.50;58.64
71666;BME280;59503;53.486;10.196;2023-05-20T07:37:29;102716.41;;;17.02;58.09
71666;BME280;59503;53.486;10.196;2023-05-20T07:39:54;102712.94;;;17.40;56.40
71666;BME280;59503;53.486;10.196;2023-05-20T07:42:19;102712.53;;;17.76;55.59
71666;BME280;59503;53.486;10.196;2023-05-20T07:44:45;102714.66;;;18.24;54.50
71666;BME280;59503;53.486;10.196;2023-05-20T07:47:10;102709.56;;;18.45;53.75
71666;BME280;59503;53.486;10.196;2023-05-20T07:49:36;102711.38;;;18.61;52.00
71666;BME280;59503;53.486;10.196;2023-05-20T07:52:01;102711.06;;;18.88;50.95
71666;BME280;59503;53.486;10.196;2023-05-20T07:54:26;102702.31;;;18.83;50.85
71666;BME280;59503;53.486;10.196;2023-05-20T07:56:52;102704.75;;;18.65;50.64
71666;BME280;59503;53.486;10.196;2023-05-20T07:59:17;102709.78;;;18.14;52.04
71666;BME280;59503;53.486;10.196;2023-05-20T08:01:43;102709.50;;;18.00;52.39
71666;BME280;59503;53.486;10.196;2023-05-20T08:04:08;102705.47;;;17.75;52.95
71666;BME280;59503;53.486;10.196;2023-05-20T08:06:33;102705.03;;;17.92;52.48
71666;BME280;59503;53.486;10.196;2023-05-20T08:09:00;102707.91;;;17.99;52.02
71666;BME280;59503;53.486;10.196;2023-05-20T08:11:26;102704.00;;;18.00;51.43
71666;BME280;59503;53.486;10.196;2023-05-20T08:13:51;102700.13;;;18.46;50.23
71666;BME280;59503;53.486;10.196;2023-05-20T08:16:17;102708.81;;;18.48;50.48
71666;BME280;59503;53.486;10.196;2023-05-20T08:18:42;102692.72;;;18.50;50.03
71666;BME280;59503;53.486;10.196;2023-05-20T08:21:08;102701.47;;;17.92;50.88
71666;BME280;59503;53.486;10.196;2023-05-20T08:23:34;102693.22;;;17.92;51.53
71666;BME280;59503;53.486;10.196;2023-05-20T08:26:00;102702.72;;;18.17;50.88
71666;BME280;59503;53.486;10.196;2023-05-20T08:28:28;102703.78;;;17.90;51.77
71666;BME280;59503;53.486;10.196;2023-05-20T08:30:53;102699.88;;;18.32;50.14
71666;BME280;59503;53.486;10.196;2023-05-20T08:33:19;102692.47;;;18.59;49.31
71666;BME280;59503;53.486;10.196;2023-05-20T08:35:46;102693.81;;;18.69;49.60
71666;BME280;59503;53.486;10.196;2023-05-20T08:38:12;102688.38;;;18.49;49.53
71666;BME280;59503;53.486;10.196;2023-05-20T08:40:37;102686.22;;;18.62;49.40
71666;BME280;59503;53.486;10.196;2023-05-20T08:43:03;102678.25;;;18.12;50.85
71666;BME280;59503;53.486;10.196;2023-05-20T08:45:31;102698.09;;;18.66;49.98
71666;BME280;59503;53.486;10.196;2023-05-20T08:47:57;102686.25;;;18.39;49.86
71666;BME280;59503;53.486;10.196;2023-05-20T08:50:22;102678.31;;;18.38;50.30
71666;BME280;59503;53.486;10.196;2023-05-20T08:52:48;102679.59;;;18.21;50.52
71666;BME280;59503;53.486;10.196;2023-05-20T08:55:16;102673.28;;;17.98;50.58
71666;BME280;59503;53.486;10.196;2023-05-20T08:57:49;102677.72;;;17.65;50.68
71666;BME280;59503;53.486;10.196;2023-05-20T09:00:14;102679.38;;;17.88;49.28
71666;BME280;59503;53.486;10.196;2023-05-20T09:02:42;102670.66;;;18.05;49.06
71666;BME280;59503;53.486;10.196;2023-05-20T09:05:09;102679.31;;;17.85;49.58
71666;BME280;59503;53.486;10.196;2023-05-20T09:07:35;102669.91;;;18.08;48.10
71666;BME280;59503;53.486;10.196;2023-05-20T09:10:00;102670.31;;;17.88;48.49
71666;BME280;59503;53.486;10.196;2023-05-20T09:12:26;102654.59;;;17.66;49.18
71666;BME280;59503;53.486;10.196;2023-05-20T09:14:51;102657.56;;;17.57;49.58
71666;BME280;59503;53.486;10.196;2023-05-20T09:17:17;102659.88;;;17.55;49.61
71666;BME280;59503;53.486;10.196;2023-05-20T09:19:43;102650.75;;;17.51;49.46
71666;BME280;59503;53.486;10.196;2023-05-20T09:22:08;102662.03;;;17.46;50.07
71666;BME280;59503;53.486;10.196;2023-05-20T09:24:34;102650.56;;;17.25;50.68
71666;BME280;59503;53.486;10.196;2023-05-20T09:26:59;102650.25;;;17.11;50.72
71666;BME280;59503;53.486;10.196;2023-05-20T09:29:25;102650.63;;;17.09;50.37
71666;BME280;59503;53.486;10.196;2023-05-20T09:31:51;102654.38;;;17.20;50.12
71666;BME280;59503;53.486;10.196;2023-05-20T09:34:17;102647.78;;;17.06;50.93
71666;BME280;59503;53.486;10.196;2023-05-20T09:36:47;102660.81;;;16.74;52.10
71666;BME280;59503;53.486;10.196;2023-05-20T09:39:16;102652.38;;;16.67;52.55
71666;BME280;59503;53.486;10.196;2023-05-20T09:44:45;102648.97;;;16.55;52.87
71666;BME280;59503;53.486;10.196;2023-05-20T09:47:12;102651.13;;;16.80;52.33
71666;BME280;59503;53.486;10.196;2023-05-20T09:49:40;102662.47;;;16.79;52.90
71666;BME280;59503;53.486;10.196;2023-05-20T09:52:06;102650.06;;;16.85;52.74
71666;BME280;59503;53.486;10.196;2023-05-20T09:54:32;102639.00;;;16.81;52.80
71666;BME280;59503;53.486;10.196;2023-05-20T09:56:59;102654.31;;;16.82;52.87
71666;BME280;59503;53.486;10.196;2023-05-20T09:59:25;102646.75;;;16.95;52.63
71666;BME280;59503;53.486;10.196;2023-05-20T10:01:51;102649.88;;;16.93;53.04
71666;BME280;59503;53.486;10.196;2023-05-20T10:04:18;102644.78;;;16.95;52.63
71666;BME280;59503;53.486;10.196;2023-05-20T10:09:41;102638.03;;;16.74;53.32
71666;BME280;59503;53.486;10.196;2023-05-20T10:12:44;102634.63;;;16.96;53.27
71666;BME280;59503;53.486;10.196;2023-05-20T10:18:05;102625.88;;;17.86;51.49
71666;BME280;59503;53.486;10.196;2023-05-20T10:20:44;102620.75;;;18.29;50.20
71666;BME280;59503;53.486;10.196;2023-05-20T10:23:20;102612.69;;;18.40;50.21
71666;BME280;59503;53.486;10.196;2023-05-20T10:25:55;102624.22;;;19.01;48.81
71666;BME280;59503;53.486;10.196;2023-05-20T10:28:47;102619.69;;;18.86;48.63
71666;BME280;59503;53.486;10.196;2023-05-20T10:31:20;102616.44;;;18.81;49.08
71666;BME280;59503;53.486;10.196;2023-05-20T10:33:46;102616.19;;;18.89;48.22
71666;BME280;59503;53.486;10.196;2023-05-20T10:36:28;102614.88;;;18.80;48.39
71666;BME280;59503;53.486;10.196;2023-05-20T10:38:58;102610.78;;;18.70;48.66
71666;BME280;59503;53.486;10.196;2023-05-20T10:41:25;102609.72;;;18.52;47.26
71666;BME280;59503;53.486;10.196;2023-05-20T10:44:04;102609.75;;;18.82;47.41
71666;BME280;59503;53.486;10.196;2023-05-20T10:46:31;102602.66;;;18.81;48.33
71666;BME280;59503;53.486;10.196;2023-05-20T10:48:57;102602.03;;;18.16;49.78
71666;BME280;59503;53.486;10.196;2023-05-20T10:51:23;102597.09;;;18.02;50.15
71666;BME280;59503;53.486;10.196;2023-05-20T10:53:52;102605.84;;;17.66;51.21
71666;BME280;59503;53.486;10.196;2023-05-20T10:56:20;102599.13;;;17.45;52.40
71666;BME280;59503;53.486;10.196;2023-05-20T10:58:46;102592.78;;;17.21;53.39
71666;BME280;59503;53.486;10.196;2023-05-20T11:01:12;102601.38;;;17.20;53.59
71666;BME280;59503;53.486;10.196;2023-05-20T11:03:40;102596.16;;;17.15;53.78
71666;BME280;59503;53.486;10.196;2023-05-20T11:06:11;102592.09;;;17.09;54.15
71666;BME280;59503;53.486;10.196;2023-05-20T11:08:37;102583.78;;;17.05;54.40
71666;BME280;59503;53.486;10.196;2023-05-20T11:11:02;102596.72;;;16.86;54.98
71666;BME280;59503;53.486;10.196;2023-05-20T11:13:29;102590.81;;;16.68;55.30
71666;BME280;59503;53.486;10.196;2023-05-20T11:15:55;102584.66;;;16.56;56.03
71666;BME280;59503;53.486;10.196;2023-05-20T11:18:20;102585.53;;;16.29;56.62
71666;BME280;59503;53.486;10.196;2023-05-20T11:20:46;102585.53;;;16.44;56.46
71666;BME280;59503;53.486;10.196;2023-05-20T11:23:13;102585.88;;;16.43;55.49
71666;BME280;59503;53.486;10.196;2023-05-20T11:25:38;102575.66;;;16.74;55.20
71666;BME280;59503;53.486;10.196;2023-05-20T11:28:11;102589.34;;;16.90;53.96
71666;BME280;59503;53.486;10.196;2023-05-20T11:30:37;102580.94;;;16.83;54.73
71666;BME280;59503;53.486;10.196;2023-05-20T11:33:03;102580.53;;;17.00;55.04
71666;BME280;59503;53.486;10.196;2023-05-20T11:35:30;102574.63;;;17.17;53.86
71666;BME280;59503;53.486;10.196;2023-05-20T11:38:03;102579.81;;;17.03;54.44
71666;BME280;59503;53.486;10.196;2023-05-20T11:40:31;102580.03;;;17.32;54.29
71666;BME280;59503;53.486;10.196;2023-05-20T11:42:59;102574.34;;;17.22;54.10
71666;BME280;59503;53.486;10.196;2023-05-20T11:45:25;102572.28;;;17.19;55.11
71666;BME280;59503;53.486;10.196;2023-05-20T11:48:01;102572.88;;;17.09;54.83
71666;BME280;59503;53.486;10.196;2023-05-20T11:50:27;102564.91;;;17.04;55.63
71666;BME280;59503;53.486;10.196;2023-05-20T11:52:59;102574.03;;;17.27;55.29
71666;BME280;59503;53.486;10.196;2023-05-20T11:55:26;102573.16;;;17.23;55.08
71666;BME280;59503;53.486;10.196;2023-05-20T11:57:53;102578.50;;;16.97;55.71
71666;BME280;59503;53.486;10.196;2023-05-20T12:00:18;102583.78;;;16.86;56.27
71666;BME280;59503;53.486;10.196;2023-05-20T12:02:44;102575.69;;;16.59;57.88
71666;BME280;59503;53.486;10.196;2023-05-20T12:05:09;102565.34;;;16.37;58.51
71666;BME280;59503;53.486;10.196;2023-05-20T12:07:35;102571.53;;;16.34;59.23
71666;BME280;59503;53.486;10.196;2023-05-20T12:10:02;102573.66;;;16.25;59.65
71666;BME280;59503;53.486;10.196;2023-05-20T12:12:27;102568.19;;;16.25;60.17
71666;BME280;59503;53.486;10.196;2023-05-20T12:14:53;102571.66;;;16.53;59.64
71666;BME280;59503;53.486;10.196;2023-05-20T12:17:18;102555.06;;;16.65;57.75
71666;BME280;59503;53.486;10.196;2023-05-20T12:19:43;102556.78;;;16.73;57.71
71666;BME280;59503;53.486;10.196;2023-05-20T12:22:09;102556.81;;;17.11;56.61
71666;BME280;59503;53.486;10.196;2023-05-20T12:24:34;102555.22;;;17.29;55.51
71666;BME280;59503;53.486;10.196;2023-05-20T12:27:01;102552.31;;;17.41;55.33
71666;BME280;59503;53.486;10.196;2023-05-20T12:29:28;102554.50;;;17.13;55.64
71666;BME280;59503;53.486;10.196;2023-05-20T12:31:53;102550.47;;;16.88;56.23
71666;BME280;59503;53.486;10.196;2023-05-20T12:34:19;102554.34;;;16.87;56.66
71666;BME280;59503;53.486;10.196;2023-05-20T12:36:44;102541.03;;;16.89;57.06
71666;BME280;59503;53.486;10.196;2023-05-20T12:39:10;102537.88;;;17.06;56.24
71666;BME280;59503;53.486;10.196;2023-05-20T12:41:36;102549.16;;;17.20;55.18
71666;BME280;59503;53.486;10.196;2023-05-20T12:44:02;102537.06;;;17.05;56.26
71666;BME280;59503;53.486;10.196;2023-05-20T12:46:27;102533.97;;;16.88;56.06